Toomsboro, GA

12:35 PM EDT on September 30, 2014 (GMT -0400)
South West Baldwin County | Change Station
CLOSE
Current Station
Personal Weather Station
Location: Milledgeville, GA
Elevation: 253 ft
Nearby Weather Stations

Elev 253 ft 32.98 °N, 83.12 °W | Updated 4 seconds ago

Overcast
Overcast
73.5 °F
Feels Like 74 °F
N
0.0
Wind Variable Wind from NNW
Gusts 2.0 mph

Today
High -- | Low -- °F
--% Chance of Precip.
Yesterday
High -- | Low -- °F
Precip. -- in
7:25 AM 7:18 PM
Waxing Crescent, 38% visible
Pressure 29.95 in
Visibility 10.0 miles
Clouds Scattered Clouds 2500 ft
Heat Index 74 °F
Dew Point 66 °F
Humidity 77%
Rainfall 0.00 in
Snow Depth Not available.
UV 7 out of 12
Pollen 6.60 out of 12
Air Quality Not available.
Flu Activity Not available.
METAR KOKZ 301615Z AUTO 06004KT 10SM SCT025 24/17 A2995 RMK AO2 T02360172

More Conditions Fewer Conditions

Pressure 29.95 in
Visibility 10.0 miles
Clouds Scattered Clouds 2500 ft
Heat Index 74 °F
Dew Point 66 °F
Humidity 77%
Rainfall 0.00 in
Snow Depth Not available.
UV 7 out of 12
Pollen 6.60 out of 12
Air Quality Not available.
Flu Activity Not available.
METAR KOKZ 301615Z AUTO 06004KT 10SM SCT025 24/17 A2995 RMK AO2 T02360172

More Conditions Fewer Conditions

10-Day Weather Forecast

Almanac

Astronomy

Sep. 30, 2014 Rise Set
Actual Time 7:25 AM EDT 7:18 PM EDT
Civil Twilight 7:01 AM EDT 7:42 PM EDT
Nautical Twilight 6:32 AM EDT 8:11 PM EDT
Astronomical Twilight 6:03 AM EDT 8:40 PM EDT
Moon 1:18 PM EDT No Moon Set
Length of Visible Light 12h 41m
Length of Day
11h 52m
Tomorrow will be 2m 1s shorter.
Waxing Crescent, 38% of the Moon is Illuminated
Today
Waxing Crescent
Oct 1
First Quarter
Oct 8
Full
Oct 15
Last Quarter
Oct 23
New

Today's Extremes

State Highs State Lows

Community

WunderPhotos

Upload Photos

1,757,679 photos uploaded!

Nearby

Snow Depth

Station Depth Elevation
No new snow has been reported.

Earthquake Activity

City Distance Mag. Time & Date
No recent earthquake activity has been reported nearby.
Minimum magnitude displayed is 2.5.

Coastal Water Temperatures

Place Temperature
No Stations Reporting

Nearby Weather Stations